sensor_id;sensor_type;location;lat;lon;timestamp;P1;durP1;ratioP1;P2;durP2;ratioP2
10007;SDS011;5043;41.766;26.204;2022-10-26T00:02:14;20.00;;;11.55;;
10007;SDS011;5043;41.766;26.204;2022-10-26T00:04:40;30.52;;;11.80;;
10007;SDS011;5043;41.766;26.204;2022-10-26T00:07:05;22.27;;;11.13;;
10007;SDS011;5043;41.766;26.204;2022-10-26T00:09:31;14.60;;;10.07;;
10007;SDS011;5043;41.766;26.204;2022-10-26T00:11:56;13.63;;;8.88;;
10007;SDS011;5043;41.766;26.204;2022-10-26T00:14:22;15.25;;;9.68;;
10007;SDS011;5043;41.766;26.204;2022-10-26T00:16:47;23.98;;;9.88;;
10007;SDS011;5043;41.766;26.204;2022-10-26T00:19:13;17.33;;;11.32;;
10007;SDS011;5043;41.766;26.204;2022-10-26T00:21:38;19.38;;;10.93;;
10007;SDS011;5043;41.766;26.204;2022-10-26T00:24:04;19.48;;;10.50;;
10007;SDS011;5043;41.766;26.204;2022-10-26T00:26:29;17.88;;;10.15;;
10007;SDS011;5043;41.766;26.204;2022-10-26T00:28:55;17.83;;;9.73;;
10007;SDS011;5043;41.766;26.204;2022-10-26T00:31:22;17.55;;;10.07;;
10007;SDS011;5043;41.766;26.204;2022-10-26T00:33:51;15.50;;;9.90;;
10007;SDS011;5043;41.766;26.204;2022-10-26T00:36:18;22.60;;;10.00;;
10007;SDS011;5043;41.766;26.204;2022-10-26T00:38:53;18.48;;;10.15;;
10007;SDS011;5043;41.766;26.204;2022-10-26T00:41:20;18.05;;;10.50;;
10007;SDS011;5043;41.766;26.204;2022-10-26T00:43:48;17.95;;;11.05;;
10007;SDS011;5043;41.766;26.204;2022-10-26T00:46:15;19.30;;;10.43;;
10007;SDS011;5043;41.766;26.204;2022-10-26T00:48:47;18.92;;;10.52;;
10007;SDS011;5043;41.766;26.204;2022-10-26T00:51:32;17.45;;;10.98;;
10007;SDS011;5043;41.766;26.204;2022-10-26T00:54:05;17.95;;;10.70;;
10007;SDS011;5043;41.766;26.204;2022-10-26T00:56:34;18.52;;;10.80;;
10007;SDS011;5043;41.766;26.204;2022-10-26T00:59:01;16.20;;;10.75;;
10007;SDS011;5043;41.766;26.204;2022-10-26T01:01:31;13.98;;;9.65;;
10007;SDS011;5043;41.766;26.204;2022-10-26T01:03:59;15.70;;;9.65;;
10007;SDS011;5043;41.766;26.204;2022-10-26T01:06:28;18.00;;;9.85;;
10007;SDS011;5043;41.766;26.204;2022-10-26T01:08:55;20.98;;;10.02;;
10007;SDS011;5043;41.766;26.204;2022-10-26T01:11:21;18.38;;;10.07;;
10007;SDS011;5043;41.766;26.204;2022-10-26T01:13:46;16.90;;;10.25;;
10007;SDS011;5043;41.766;26.204;2022-10-26T01:16:18;21.08;;;10.52;;
10007;SDS011;5043;41.766;26.204;2022-10-26T01:22:05;15.85;;;10.52;;
10007;SDS011;5043;41.766;26.204;2022-10-26T01:27:28;15.73;;;10.18;;
10007;SDS011;5043;41.766;26.204;2022-10-26T01:30:09;21.48;;;10.73;;
10007;SDS011;5043;41.766;26.204;2022-10-26T01:35:11;15.35;;;10.00;;
10007;SDS011;5043;41.766;26.204;2022-10-26T01:37:43;17.05;;;11.57;;
10007;SDS011;5043;41.766;26.204;2022-10-26T01:40:15;23.65;;;10.20;;
10007;SDS011;5043;41.766;26.204;2022-10-26T01:42:50;14.25;;;10.15;;
10007;SDS011;5043;41.766;26.204;2022-10-26T01:45:18;18.02;;;10.13;;
10007;SDS011;5043;41.766;26.204;2022-10-26T01:47:45;15.85;;;10.38;;
10007;SDS011;5043;41.766;26.204;2022-10-26T01:50:12;15.68;;;10.38;;
10007;SDS011;5043;41.766;26.204;2022-10-26T01:52:37;17.00;;;10.77;;
10007;SDS011;5043;41.766;26.204;2022-10-26T01:58:07;16.73;;;11.32;;
10007;SDS011;5043;41.766;26.204;2022-10-26T02:00:35;17.65;;;10.35;;
10007;SDS011;5043;41.766;26.204;2022-10-26T02:03:08;14.60;;;10.05;;
10007;SDS011;5043;41.766;26.204;2022-10-26T02:05:51;19.70;;;10.73;;
10007;SDS011;5043;41.766;26.204;2022-10-26T02:11:23;20.23;;;10.82;;
10007;SDS011;5043;41.766;26.204;2022-10-26T02:14:29;15.85;;;9.90;;
10007;SDS011;5043;41.766;26.204;2022-10-26T02:17:01;16.00;;;10.10;;
10007;SDS011;5043;41.766;26.204;2022-10-26T02:19:32;21.83;;;10.45;;
10007;SDS011;5043;41.766;26.204;2022-10-26T02:22:12;18.20;;;10.20;;
10007;SDS011;5043;41.766;26.204;2022-10-26T02:24:59;18.90;;;11.00;;
10007;SDS011;5043;41.766;26.204;2022-10-26T02:27:30;18.00;;;10.85;;
10007;SDS011;5043;41.766;26.204;2022-10-26T02:29:59;21.95;;;10.90;;
10007;SDS011;5043;41.766;26.204;2022-10-26T02:32:29;18.58;;;10.57;;
10007;SDS011;5043;41.766;26.204;2022-10-26T02:34:59;21.08;;;11.00;;
10007;SDS011;5043;41.766;26.204;2022-10-26T02:37:27;18.90;;;10.93;;
10007;SDS011;5043;41.766;26.204;2022-10-26T02:39:54;17.98;;;10.98;;
10007;SDS011;5043;41.766;26.204;2022-10-26T02:42:21;24.77;;;11.35;;
10007;SDS011;5043;41.766;26.204;2022-10-26T02:44:49;22.38;;;11.82;;
10007;SDS011;5043;41.766;26.204;2022-10-26T02:47:18;17.98;;;11.52;;
10007;SDS011;5043;41.766;26.204;2022-10-26T02:49:45;13.95;;;10.63;;
10007;SDS011;5043;41.766;26.204;2022-10-26T02:52:27;19.02;;;10.40;;
10007;SDS011;5043;41.766;26.204;2022-10-26T02:57:43;21.23;;;12.05;;
10007;SDS011;5043;41.766;26.204;2022-10-26T03:00:13;18.02;;;12.35;;
10007;SDS011;5043;41.766;26.204;2022-10-26T03:02:41;16.27;;;10.98;;
10007;SDS011;5043;41.766;26.204;2022-10-26T03:07:48;17.60;;;10.80;;
10007;SDS011;5043;41.766;26.204;2022-10-26T03:10:13;16.77;;;10.43;;
10007;SDS011;5043;41.766;26.204;2022-10-26T03:12:38;16.95;;;11.77;;
10007;SDS011;5043;41.766;26.204;2022-10-26T03:15:04;19.35;;;12.73;;
10007;SDS011;5043;41.766;26.204;2022-10-26T03:17:30;23.85;;;12.27;;
10007;SDS011;5043;41.766;26.204;2022-10-26T03:19:55;21.13;;;12.27;;
10007;SDS011;5043;41.766;26.204;2022-10-26T03:22:21;20.63;;;11.98;;
10007;SDS011;5043;41.766;26.204;2022-10-26T03:24:47;14.75;;;11.73;;
10007;SDS011;5043;41.766;26.204;2022-10-26T03:27:12;15.25;;;12.07;;
10007;SDS011;5043;41.766;26.204;2022-10-26T03:29:38;19.20;;;11.07;;
10007;SDS011;5043;41.766;26.204;2022-10-26T03:32:05;17.75;;;10.85;;
10007;SDS011;5043;41.766;26.204;2022-10-26T03:34:31;17.02;;;11.45;;
10007;SDS011;5043;41.766;26.204;2022-10-26T03:36:57;21.05;;;11.40;;
10007;SDS011;5043;41.766;26.204;2022-10-26T03:39:23;21.05;;;11.35;;
10007;SDS011;5043;41.766;26.204;2022-10-26T03:41:48;24.45;;;13.20;;
10007;SDS011;5043;41.766;26.204;2022-10-26T03:44:14;14.68;;;11.60;;
10007;SDS011;5043;41.766;26.204;2022-10-26T03:46:39;18.85;;;12.57;;
10007;SDS011;5043;41.766;26.204;2022-10-26T03:49:05;17.23;;;11.27;;
10007;SDS011;5043;41.766;26.204;2022-10-26T03:51:30;24.70;;;12.32;;
10007;SDS011;5043;41.766;26.204;2022-10-26T03:53:56;25.38;;;11.70;;
10007;SDS011;5043;41.766;26.204;2022-10-26T03:56:21;26.42;;;10.93;;
10007;SDS011;5043;41.766;26.204;2022-10-26T03:58:46;27.63;;;15.02;;
10007;SDS011;5043;41.766;26.204;2022-10-26T04:01:12;21.13;;;15.75;;
10007;SDS011;5043;41.766;26.204;2022-10-26T04:03:37;20.13;;;12.40;;
10007;SDS011;5043;41.766;26.204;2022-10-26T04:06:03;14.90;;;12.38;;
10007;SDS011;5043;41.766;26.204;2022-10-26T04:08:28;19.30;;;11.75;;
10007;SDS011;5043;41.766;26.204;2022-10-26T04:10:54;14.15;;;10.68;;
10007;SDS011;5043;41.766;26.204;2022-10-26T04:13:19;22.38;;;12.77;;
10007;SDS011;5043;41.766;26.204;2022-10-26T04:15:45;23.48;;;11.75;;
10007;SDS011;5043;41.766;26.204;2022-10-26T04:18:10;22.27;;;13.95;;
10007;SDS011;5043;41.766;26.204;2022-10-26T04:20:37;18.13;;;12.05;;
10007;SDS011;5043;41.766;26.204;2022-10-26T04:23:03;16.50;;;12.32;;
10007;SDS011;5043;41.766;26.204;2022-10-26T04:25:31;21.55;;;13.40;;
10007;SDS011;5043;41.766;26.204;2022-10-26T04:27:57;20.30;;;12.38;;
10007;SDS011;5043;41.766;26.204;2022-10-26T04:30:23;22.20;;;12.30;;
10007;SDS011;5043;41.766;26.204;2022-10-26T04:32:49;18.88;;;12.07;;
10007;SDS011;5043;41.766;26.204;2022-10-26T04:35:15;34.33;;;17.10;;
10007;SDS011;5043;41.766;26.204;2022-10-26T04:37:40;22.50;;;14.35;;
10007;SDS011;5043;41.766;26.204;2022-10-26T04:40:06;27.63;;;15.48;;
10007;SDS011;5043;41.766;26.204;2022-10-26T04:42:38;19.67;;;12.60;;
10007;SDS011;5043;41.766;26.204;2022-10-26T04:45:08;26.58;;;13.68;;
10007;SDS011;5043;41.766;26.204;2022-10-26T04:47:34;22.10;;;12.52;;
10007;SDS011;5043;41.766;26.204;2022-10-26T04:49:59;27.02;;;13.43;;
10007;SDS011;5043;41.766;26.204;2022-10-26T04:52:25;39.08;;;15.07;;
10007;SDS011;5043;41.766;26.204;2022-10-26T04:54:50;23.75;;;14.27;;
10007;SDS011;5043;41.766;26.204;2022-10-26T04:57:16;25.30;;;14.95;;
10007;SDS011;5043;41.766;26.204;2022-10-26T04:59:41;21.25;;;13.40;;
10007;SDS011;5043;41.766;26.204;2022-10-26T05:02:06;19.77;;;12.80;;
10007;SDS011;5043;41.766;26.204;2022-10-26T05:04:32;23.23;;;12.40;;
10007;SDS011;5043;41.766;26.204;2022-10-26T05:06:57;33.38;;;13.85;;
10007;SDS011;5043;41.766;26.204;2022-10-26T05:09:23;21.95;;;13.48;;
10007;SDS011;5043;41.766;26.204;2022-10-26T05:11:48;25.70;;;14.07;;
10007;SDS011;5043;41.766;26.204;2022-10-26T05:14:13;29.25;;;14.38;;
10007;SDS011;5043;41.766;26.204;2022-10-26T05:16:39;21.40;;;14.25;;
10007;SDS011;5043;41.766;26.204;2022-10-26T05:19:04;30.00;;;16.58;;
10007;SDS011;5043;41.766;26.204;2022-10-26T05:21:30;26.85;;;15.93;;
10007;SDS011;5043;41.766;26.204;2022-10-26T05:23:55;27.98;;;14.85;;
10007;SDS011;5043;41.766;26.204;2022-10-26T05:26:21;20.33;;;13.77;;
10007;SDS011;5043;41.766;26.204;2022-10-26T05:28:47;30.48;;;15.95;;
10007;SDS011;5043;41.766;26.204;2022-10-26T05:31:13;28.08;;;14.93;;
10007;SDS011;5043;41.766;26.204;2022-10-26T05:33:39;20.27;;;14.40;;
10007;SDS011;5043;41.766;26.204;2022-10-26T05:36:05;18.05;;;13.13;;
10007;SDS011;5043;41.766;26.204;2022-10-26T05:38:30;25.35;;;13.93;;
10007;SDS011;5043;41.766;26.204;2022-10-26T05:40:56;26.23;;;13.82;;
10007;SDS011;5043;41.766;26.204;2022-10-26T05:43:23;28.83;;;15.18;;
10007;SDS011;5043;41.766;26.204;2022-10-26T05:45:49;29.15;;;14.23;;
10007;SDS011;5043;41.766;26.204;2022-10-26T05:48:15;23.00;;;14.48;;
10007;SDS011;5043;41.766;26.204;2022-10-26T05:50:41;30.05;;;14.20;;
10007;SDS011;5043;41.766;26.204;2022-10-26T05:53:07;24.60;;;14.63;;
10007;SDS011;5043;41.766;26.204;2022-10-26T05:55:33;34.25;;;14.65;;
10007;SDS011;5043;41.766;26.204;2022-10-26T05:57:59;19.95;;;14.57;;
10007;SDS011;5043;41.766;26.204;2022-10-26T06:00:25;26.17;;;15.32;;
10007;SDS011;5043;41.766;26.204;2022-10-26T06:05:34;24.70;;;15.77;;
10007;SDS011;5043;41.766;26.204;2022-10-26T06:08:17;30.60;;;18.08;;
10007;SDS011;5043;41.766;26.204;2022-10-26T06:10:43;29.92;;;18.00;;
10007;SDS011;5043;41.766;26.204;2022-10-26T06:13:09;30.15;;;19.70;;
10007;SDS011;5043;41.766;26.204;2022-10-26T06:23:52;18.65;;;12.07;;
10007;SDS011;5043;41.766;26.204;2022-10-26T06:26:45;23.30;;;13.02;;
10007;SDS011;5043;41.766;26.204;2022-10-26T06:29:26;20.73;;;11.90;;
10007;SDS011;5043;41.766;26.204;2022-10-26T06:32:07;22.65;;;12.00;;
10007;SDS011;5043;41.766;26.204;2022-10-26T06:34:34;21.23;;;12.00;;
10007;SDS011;5043;41.766;26.204;2022-10-26T06:37:02;23.45;;;11.05;;
10007;SDS011;5043;41.766;26.204;2022-10-26T06:39:29;23.73;;;10.52;;
10007;SDS011;5043;41.766;26.204;2022-10-26T06:41:59;22.92;;;9.85;;
10007;SDS011;5043;41.766;26.204;2022-10-26T06:44:25;18.15;;;9.55;;
10007;SDS011;5043;41.766;26.204;2022-10-26T06:46:53;16.05;;;9.18;;
10007;SDS011;5043;41.766;26.204;2022-10-26T06:49:30;29.85;;;11.40;;
10007;SDS011;5043;41.766;26.204;2022-10-26T06:54:50;18.58;;;8.65;;
10007;SDS011;5043;41.766;26.204;2022-10-26T06:57:19;18.50;;;9.13;;
10007;SDS011;5043;41.766;26.204;2022-10-26T06:59:59;16.85;;;8.30;;
10007;SDS011;5043;41.766;26.204;2022-10-26T07:02:29;21.25;;;8.20;;
10007;SDS011;5043;41.766;26.204;2022-10-26T07:04:55;17.98;;;8.63;;
10007;SDS011;5043;41.766;26.204;2022-10-26T07:07:21;22.77;;;8.15;;
10007;SDS011;5043;41.766;26.204;2022-10-26T07:09:49;18.25;;;7.72;;
10007;SDS011;5043;41.766;26.204;2022-10-26T07:12:15;15.45;;;7.65;;
10007;SDS011;5043;41.766;26.204;2022-10-26T07:14:40;22.92;;;7.47;;
10007;SDS011;5043;41.766;26.204;2022-10-26T07:17:07;16.17;;;7.75;;
10007;SDS011;5043;41.766;26.204;2022-10-26T07:19:33;23.60;;;8.18;;
10007;SDS011;5043;41.766;26.204;2022-10-26T07:21:58;17.90;;;7.78;;
10007;SDS011;5043;41.766;26.204;2022-10-26T07:24:25;20.73;;;7.57;;
10007;SDS011;5043;41.766;26.204;2022-10-26T07:26:52;19.17;;;7.82;;
10007;SDS011;5043;41.766;26.204;2022-10-26T07:29:19;19.33;;;8.00;;
10007;SDS011;5043;41.766;26.204;2022-10-26T07:31:44;19.83;;;7.68;;
10007;SDS011;5043;41.766;26.204;2022-10-26T07:34:10;21.25;;;7.93;;
10007;SDS011;5043;41.766;26.204;2022-10-26T07:36:36;23.52;;;8.82;;
10007;SDS011;5043;41.766;26.204;2022-10-26T07:39:03;19.92;;;7.32;;
10007;SDS011;5043;41.766;26.204;2022-10-26T07:41:29;20.95;;;8.50;;
10007;SDS011;5043;41.766;26.204;2022-10-26T07:43:54;16.75;;;7.38;;
10007;SDS011;5043;41.766;26.204;2022-10-26T07:46:20;19.48;;;7.50;;
10007;SDS011;5043;41.766;26.204;2022-10-26T07:48:45;16.17;;;6.93;;
10007;SDS011;5043;41.766;26.204;2022-10-26T07:51:11;25.13;;;7.93;;
10007;SDS011;5043;41.766;26.204;2022-10-26T07:53:36;14.02;;;6.93;;
10007;SDS011;5043;41.766;26.204;2022-10-26T07:56:02;13.15;;;6.53;;
10007;SDS011;5043;41.766;26.204;2022-10-26T07:58:29;16.30;;;7.75;;
10007;SDS011;5043;41.766;26.204;2022-10-26T08:01:03;15.20;;;7.63;;
10007;SDS011;5043;41.766;26.204;2022-10-26T08:03:30;16.40;;;6.35;;
10007;SDS011;5043;41.766;26.204;2022-10-26T08:05:56;10.65;;;6.25;;
10007;SDS011;5043;41.766;26.204;2022-10-26T08:08:23;16.88;;;7.15;;
10007;SDS011;5043;41.766;26.204;2022-10-26T08:10:48;18.55;;;6.72;;
10007;SDS011;5043;41.766;26.204;2022-10-26T08:13:15;20.73;;;7.47;;
10007;SDS011;5043;41.766;26.204;2022-10-26T08:15:40;24.08;;;7.50;;
10007;SDS011;5043;41.766;26.204;2022-10-26T08:18:06;14.23;;;6.65;;
10007;SDS011;5043;41.766;26.204;2022-10-26T08:20:32;14.57;;;6.15;;
10007;SDS011;5043;41.766;26.204;2022-10-26T08:22:58;14.45;;;6.13;;
10007;SDS011;5043;41.766;26.204;2022-10-26T08:25:25;17.90;;;6.30;;
10007;SDS011;5043;41.766;26.204;2022-10-26T08:27:51;12.23;;;5.40;;
10007;SDS011;5043;41.766;26.204;2022-10-26T08:30:18;13.13;;;6.50;;
10007;SDS011;5043;41.766;26.204;2022-10-26T08:32:44;10.50;;;5.95;;
10007;SDS011;5043;41.766;26.204;2022-10-26T08:35:09;10.90;;;4.93;;
10007;SDS011;5043;41.766;26.204;2022-10-26T08:37:35;9.75;;;4.32;;
10007;SDS011;5043;41.766;26.204;2022-10-26T08:40:02;7.90;;;4.82;;
10007;SDS011;5043;41.766;26.204;2022-10-26T08:42:32;16.77;;;5.25;;
10007;SDS011;5043;41.766;26.204;2022-10-26T08:45:39;12.35;;;4.70;;
10007;SDS011;5043;41.766;26.204;2022-10-26T08:48:00;11.40;;;3.97;;
10007;SDS011;5043;41.766;26.204;2022-10-26T08:50:37;9.65;;;4.43;;
10007;SDS011;5043;41.766;26.204;2022-10-26T08:53:16;7.22;;;3.30;;
10007;SDS011;5043;41.766;26.204;2022-10-26T08:55:50;21.42;;;6.95;;
10007;SDS011;5043;41.766;26.204;2022-10-26T08:58:21;12.13;;;5.07;;
10007;SDS011;5043;41.766;26.204;2022-10-26T09:00:51;12.23;;;4.78;;
10007;SDS011;5043;41.766;26.204;2022-10-26T09:03:17;5.60;;;3.60;;
10007;SDS011;5043;41.766;26.204;2022-10-26T09:14:58;4.60;;;3.28;;
10007;SDS011;5043;41.766;26.204;2022-10-26T09:17:11;15.00;;;4.57;;
10007;SDS011;5043;41.766;26.204;2022-10-26T09:22:41;7.07;;;3.50;;
10007;SDS011;5043;41.766;26.204;2022-10-26T09:25:15;8.15;;;3.42;;
10007;SDS011;5043;41.766;26.204;2022-10-26T09:27:47;11.75;;;3.92;;
10007;SDS011;5043;41.766;26.204;2022-10-26T09:30:18;5.38;;;3.28;;
10007;SDS011;5043;41.766;26.204;2022-10-26T09:32:46;5.60;;;2.63;;
10007;SDS011;5043;41.766;26.204;2022-10-26T09:38:13;7.53;;;3.13;;
10007;SDS011;5043;41.766;26.204;2022-10-26T09:40:59;2.97;;;2.45;;
10007;SDS011;5043;41.766;26.204;2022-10-26T09:43:35;8.32;;;2.40;;
10007;SDS011;5043;41.766;26.204;2022-10-26T09:46:30;7.05;;;2.83;;
10007;SDS011;5043;41.766;26.204;2022-10-26T09:49:00;6.82;;;2.85;;
10007;SDS011;5043;41.766;26.204;2022-10-26T09:51:32;7.13;;;3.05;;
10007;SDS011;5043;41.766;26.204;2022-10-26T09:54:04;4.88;;;2.95;;
10007;SDS011;5043;41.766;26.204;2022-10-26T09:56:37;4.53;;;2.47;;
10007;SDS011;5043;41.766;26.204;2022-10-26T09:59:05;4.72;;;2.85;;
10007;SDS011;5043;41.766;26.204;2022-10-26T10:01:35;8.63;;;3.10;;
10007;SDS011;5043;41.766;26.204;2022-10-26T10:06:47;7.20;;;3.38;;
10007;SDS011;5043;41.766;26.204;2022-10-26T10:09:21;17.05;;;13.10;;
10007;SDS011;5043;41.766;26.204;2022-10-26T10:11:51;6.85;;;4.45;;
10007;SDS011;5043;41.766;26.204;2022-10-26T10:14:20;6.90;;;3.90;;
10007;SDS011;5043;41.766;26.204;2022-10-26T10:16:57;11.10;;;3.95;;
10007;SDS011;5043;41.766;26.204;2022-10-26T10:21:59;9.93;;;3.72;;
10007;SDS011;5043;41.766;26.204;2022-10-26T10:26:55;8.00;;;3.97;;
10007;SDS011;5043;41.766;26.204;2022-10-26T10:29:38;5.95;;;3.15;;
10007;SDS011;5043;41.766;26.204;2022-10-26T10:32:05;8.02;;;3.33;;
10007;SDS011;5043;41.766;26.204;2022-10-26T10:34:41;6.32;;;3.22;;
10007;SDS011;5043;41.766;26.204;2022-10-26T10:39:59;6.15;;;3.10;;
10007;SDS011;5043;41.766;26.204;2022-10-26T10:42:33;11.43;;;4.10;;
10007;SDS011;5043;41.766;26.204;2022-10-26T10:45:01;7.72;;;3.50;;
10007;SDS011;5043;41.766;26.204;2022-10-26T10:47:34;7.40;;;3.35;;
10007;SDS011;5043;41.766;26.204;2022-10-26T10:52:39;5.97;;;3.28;;
10007;SDS011;5043;41.766;26.204;2022-10-26T11:00:11;3.67;;;2.83;;
10007;SDS011;5043;41.766;26.204;2022-10-26T11:05:28;9.25;;;3.50;;
10007;SDS011;5043;41.766;26.204;2022-10-26T11:08:01;8.70;;;3.00;;
10007;SDS011;5043;41.766;26.204;2022-10-26T11:10:49;11.93;;;4.65;;
10007;SDS011;5043;41.766;26.204;2022-10-26T11:13:35;7.82;;;2.88;;
10007;SDS011;5043;41.766;26.204;2022-10-26T11:16:10;7.70;;;3.03;;
10007;SDS011;5043;41.766;26.204;2022-10-26T11:18:47;5.10;;;3.33;;
10007;SDS011;5043;41.766;26.204;2022-10-26T11:21:21;9.93;;;3.33;;
10007;SDS011;5043;41.766;26.204;2022-10-26T11:23:54;3.65;;;2.85;;
10007;SDS011;5043;41.766;26.204;2022-10-26T11:26:45;7.20;;;3.35;;
10007;SDS011;5043;41.766;26.204;2022-10-26T11:35:18;7.07;;;3.30;;
10007;SDS011;5043;41.766;26.204;2022-10-26T11:37:51;10.50;;;3.78;;
10007;SDS011;5043;41.766;26.204;2022-10-26T11:40:43;8.02;;;2.70;;
10007;SDS011;5043;41.766;26.204;2022-10-26T11:48:58;11.93;;;4.00;;
10007;SDS011;5043;41.766;26.204;2022-10-26T11:57:33;4.43;;;3.30;;
10007;SDS011;5043;41.766;26.204;2022-10-26T12:00:04;6.47;;;3.20;;
10007;SDS011;5043;41.766;26.204;2022-10-26T12:02:57;4.10;;;2.58;;
10007;SDS011;5043;41.766;26.204;2022-10-26T12:07:56;6.95;;;3.30;;
10007;SDS011;5043;41.766;26.204;2022-10-26T12:10:29;4.32;;;2.90;;
10007;SDS011;5043;41.766;26.204;2022-10-26T12:15:56;7.57;;;3.35;;
10007;SDS011;5043;41.766;26.204;2022-10-26T12:21:03;8.07;;;3.05;;
10007;SDS011;5043;41.766;26.204;2022-10-26T12:23:51;4.68;;;3.00;;
10007;SDS011;5043;41.766;26.204;2022-10-26T12:28:47;6.75;;;3.10;;
10007;SDS011;5043;41.766;26.204;2022-10-26T12:34:02;3.00;;;2.25;;
10007;SDS011;5043;41.766;26.204;2022-10-26T12:39:31;3.58;;;2.55;;
10007;SDS011;5043;41.766;26.204;2022-10-26T12:47:11;6.47;;;2.67;;
10007;SDS011;5043;41.766;26.204;2022-10-26T13:00:12;2.67;;;2.00;;
10007;SDS011;5043;41.766;26.204;2022-10-26T13:08:15;4.07;;;2.38;;
10007;SDS011;5043;41.766;26.204;2022-10-26T13:11:24;2.75;;;2.33;;
10007;SDS011;5043;41.766;26.204;2022-10-26T13:13:36;3.60;;;2.65;;
10007;SDS011;5043;41.766;26.204;2022-10-26T13:16:04;4.13;;;2.83;;
10007;SDS011;5043;41.766;26.204;2022-10-26T13:18:39;2.95;;;2.70;;
10007;SDS011;5043;41.766;26.204;2022-10-26T13:21:07;6.65;;;3.20;;
10007;SDS011;5043;41.766;26.204;2022-10-26T13:23:38;7.05;;;2.42;;
10007;SDS011;5043;41.766;26.204;2022-10-26T13:31:03;3.15;;;2.65;;
10007;SDS011;5043;41.766;26.204;2022-10-26T13:33:39;6.13;;;3.05;;
10007;SDS011;5043;41.766;26.204;2022-10-26T13:36:17;5.50;;;2.40;;
10007;SDS011;5043;41.766;26.204;2022-10-26T13:38:50;5.85;;;2.45;;
10007;SDS011;5043;41.766;26.204;2022-10-26T13:41:35;4.95;;;2.40;;
10007;SDS011;5043;41.766;26.204;2022-10-26T13:44:04;2.67;;;2.38;;
10007;SDS011;5043;41.766;26.204;2022-10-26T13:46:35;3.70;;;2.42;;
10007;SDS011;5043;41.766;26.204;2022-10-26T13:49:16;4.03;;;3.00;;
10007;SDS011;5043;41.766;26.204;2022-10-26T13:51:47;7.50;;;3.00;;
10007;SDS011;5043;41.766;26.204;2022-10-26T13:56:55;4.38;;;2.60;;
10007;SDS011;5043;41.766;26.204;2022-10-26T13:59:37;5.40;;;2.38;;
10007;SDS011;5043;41.766;26.204;2022-10-26T14:02:26;3.92;;;2.83;;
10007;SDS011;5043;41.766;26.204;2022-10-26T14:05:01;7.63;;;2.83;;
10007;SDS011;5043;41.766;26.204;2022-10-26T14:08:15;10.32;;;3.50;;
10007;SDS011;5043;41.766;26.204;2022-10-26T14:10:29;9.15;;;5.45;;
10007;SDS011;5043;41.766;26.204;2022-10-26T14:12:56;8.70;;;5.88;;
10007;SDS011;5043;41.766;26.204;2022-10-26T14:15:28;8.95;;;6.00;;
10007;SDS011;5043;41.766;26.204;2022-10-26T14:17:56;8.90;;;4.85;;
10007;SDS011;5043;41.766;26.204;2022-10-26T14:20:23;7.32;;;3.88;;
10007;SDS011;5043;41.766;26.204;2022-10-26T14:22:50;5.20;;;3.00;;
10007;SDS011;5043;41.766;26.204;2022-10-26T14:25:20;5.05;;;3.35;;
10007;SDS011;5043;41.766;26.204;2022-10-26T14:27:48;2.90;;;2.40;;
10007;SDS011;5043;41.766;26.204;2022-10-26T14:32:48;6.00;;;3.05;;
10007;SDS011;5043;41.766;26.204;2022-10-26T14:35:15;4.25;;;3.13;;
10007;SDS011;5043;41.766;26.204;2022-10-26T14:37:45;3.97;;;2.90;;
10007;SDS011;5043;41.766;26.204;2022-10-26T14:40:19;8.43;;;3.13;;
10007;SDS011;5043;41.766;26.204;2022-10-26T14:42:48;4.93;;;2.80;;
10007;SDS011;5043;41.766;26.204;2022-10-26T14:45:22;3.78;;;2.85;;
10007;SDS011;5043;41.766;26.204;2022-10-26T14:47:49;7.38;;;2.70;;
10007;SDS011;5043;41.766;26.204;2022-10-26T14:50:21;4.60;;;2.53;;
10007;SDS011;5043;41.766;26.204;2022-10-26T14:52:49;3.25;;;2.30;;
10007;SDS011;5043;41.766;26.204;2022-10-26T14:55:17;7.15;;;2.90;;
10007;SDS011;5043;41.766;26.204;2022-10-26T14:57:43;8.02;;;2.80;;
10007;SDS011;5043;41.766;26.204;2022-10-26T15:00:14;9.15;;;3.30;;
10007;SDS011;5043;41.766;26.204;2022-10-26T15:02:51;5.20;;;3.00;;
10007;SDS011;5043;41.766;26.204;2022-10-26T15:05:20;6.07;;;2.90;;
10007;SDS011;5043;41.766;26.204;2022-10-26T15:07:54;4.72;;;2.90;;
10007;SDS011;5043;41.766;26.204;2022-10-26T15:13:10;14.48;;;3.90;;
10007;SDS011;5043;41.766;26.204;2022-10-26T15:15:43;13.38;;;3.65;;
10007;SDS011;5043;41.766;26.204;2022-10-26T15:18:17;8.38;;;4.03;;
10007;SDS011;5043;41.766;26.204;2022-10-26T15:20:45;7.38;;;4.45;;
10007;SDS011;5043;41.766;26.204;2022-10-26T15:23:12;16.10;;;6.47;;
10007;SDS011;5043;41.766;26.204;2022-10-26T15:25:38;12.80;;;6.35;;
10007;SDS011;5043;41.766;26.204;2022-10-26T15:28:20;8.30;;;4.97;;
10007;SDS011;5043;41.766;26.204;2022-10-26T15:31:21;10.85;;;4.70;;
10007;SDS011;5043;41.766;26.204;2022-10-26T15:36:18;13.75;;;4.60;;
10007;SDS011;5043;41.766;26.204;2022-10-26T15:38:46;6.68;;;4.00;;
10007;SDS011;5043;41.766;26.204;2022-10-26T15:43:40;9.68;;;4.72;;
10007;SDS011;5043;41.766;26.204;2022-10-26T15:46:06;8.75;;;4.80;;
10007;SDS011;5043;41.766;26.204;2022-10-26T15:48:31;15.68;;;6.13;;
10007;SDS011;5043;41.766;26.204;2022-10-26T15:50:58;13.82;;;7.03;;
10007;SDS011;5043;41.766;26.204;2022-10-26T15:53:24;20.40;;;6.50;;
10007;SDS011;5043;41.766;26.204;2022-10-26T15:55:55;11.00;;;7.05;;
10007;SDS011;5043;41.766;26.204;2022-10-26T15:58:23;15.70;;;7.88;;
10007;SDS011;5043;41.766;26.204;2022-10-26T16:00:49;17.65;;;6.68;;
10007;SDS011;5043;41.766;26.204;2022-10-26T16:03:16;12.35;;;6.28;;
10007;SDS011;5043;41.766;26.204;2022-10-26T16:05:45;17.23;;;5.97;;
10007;SDS011;5043;41.766;26.204;2022-10-26T16:08:13;14.40;;;6.25;;
10007;SDS011;5043;41.766;26.204;2022-10-26T16:10:41;13.57;;;5.70;;
10007;SDS011;5043;41.766;26.204;2022-10-26T16:13:14;9.23;;;5.68;;
10007;SDS011;5043;41.766;26.204;2022-10-26T16:15:40;8.68;;;5.43;;
10007;SDS011;5043;41.766;26.204;2022-10-26T16:18:05;13.70;;;5.80;;
10007;SDS011;5043;41.766;26.204;2022-10-26T16:20:31;14.68;;;6.65;;
10007;SDS011;5043;41.766;26.204;2022-10-26T16:22:56;14.25;;;6.43;;
10007;SDS011;5043;41.766;26.204;2022-10-26T16:25:26;17.00;;;5.40;;
10007;SDS011;5043;41.766;26.204;2022-10-26T16:27:52;7.85;;;3.88;;
10007;SDS011;5043;41.766;26.204;2022-10-26T16:30:18;10.13;;;4.97;;
10007;SDS011;5043;41.766;26.204;2022-10-26T16:32:45;12.95;;;6.40;;
10007;SDS011;5043;41.766;26.204;2022-10-26T16:35:11;10.00;;;4.63;;
10007;SDS011;5043;41.766;26.204;2022-10-26T16:37:37;8.85;;;4.82;;
10007;SDS011;5043;41.766;26.204;2022-10-26T16:40:03;9.70;;;5.63;;
10007;SDS011;5043;41.766;26.204;2022-10-26T16:42:31;8.00;;;5.00;;
10007;SDS011;5043;41.766;26.204;2022-10-26T16:44:57;10.13;;;6.03;;
10007;SDS011;5043;41.766;26.204;2022-10-26T16:47:23;8.95;;;5.88;;
10007;SDS011;5043;41.766;26.204;2022-10-26T16:49:49;11.02;;;6.25;;
10007;SDS011;5043;41.766;26.204;2022-10-26T16:52:16;10.65;;;7.53;;
10007;SDS011;5043;41.766;26.204;2022-10-26T16:54:41;12.10;;;8.15;;
10007;SDS011;5043;41.766;26.204;2022-10-26T16:57:07;13.98;;;6.53;;
10007;SDS011;5043;41.766;26.204;2022-10-26T16:59:33;7.97;;;5.60;;
10007;SDS011;5043;41.766;26.204;2022-10-26T17:01:59;10.63;;;5.43;;
10007;SDS011;5043;41.766;26.204;2022-10-26T17:04:24;13.73;;;5.93;;
10007;SDS011;5043;41.766;26.204;2022-10-26T17:06:50;13.20;;;7.07;;
10007;SDS011;5043;41.766;26.204;2022-10-26T17:09:16;13.55;;;7.72;;
10007;SDS011;5043;41.766;26.204;2022-10-26T17:11:43;15.02;;;8.25;;